weather.gov     
National Weather Service

Terminal Aerodrome Forecast
NWS Homepage
This page is being discontinued on March 12, 2014.
The same data is available at this site. Please update your bookmarks.
Thank you, and we apologize for the inconvenience.
Please send an email to SR-SRH.Webmaster@noaa.gov with any concerns.


Current Version
Previous Version:    01  02  03  04  05  06  07  08  09  10  11  12  13  14  
[Printable]
444
FTUS41 KBOX 230250 AAA
TAFBDL
TAF AMD
KBDL 230250Z 2303/2406 19007KT P6SM SCT250
     FM230900 19005KT 5SM BR SCT250
     FM231100 20007KT P6SM SCT250
     FM231500 21011KT P6SM SCT250
     FM232000 20013KT P6SM BKN040
     FM232300 20010KT P6SM VCTS BKN040CB
     FM240100 20007KT 5SM TSRA BKN040CB
     FM240300 VRB03KT P6SM -SHRA BKN040=




444
FTUS41 KBOX 230250 AAA
TAFBDL
TAF AMD
KBDL 230250Z 2303/2406 19007KT P6SM SCT250
     FM230900 19005KT 5SM BR SCT250
     FM231100 20007KT P6SM SCT250
     FM231500 21011KT P6SM SCT250
     FM232000 20013KT P6SM BKN040
     FM232300 20010KT P6SM VCTS BKN040CB
     FM240100 20007KT 5SM TSRA BKN040CB
     FM240300 VRB03KT P6SM -SHRA BKN040=


U.S. Dept. of Commerce
NOAA National Weather Service
1325 East West Highway
Silver Spring, MD 20910
E-mail: w-nws.webmaster@noaa.gov
Page last modified: May 16, 2007
NATIONAL WEATHER SERVICE: for Safety, for Work, for Fun - FOR LIFE